Time;durP1;ratioP1;P1;durP2;ratioP2;P2;SDS_P1;SDS_P2;PMS_P1;PMS_P2;Temp;Humidity;BMP_temperature;BMP_pressure;BME280_temperature;BME280_humidity;BME280_pressure;Samples;Min_cycle;Max_cycle;Signal;HPM_P1;HPM_P2
2023/02/26 00:02:09;;;;;;;30.10;18.20;;;;;;;8.34;95.64;99541.65;108688;1254;62651;-85
2023/02/26 00:04:38;;;;;;;33.70;18.50;;;;;;;8.30;95.80;99550.78;108196;1254;71886;-86
2023/02/26 00:07:10;;;;;;;33.20;18.40;;;;;;;8.28;95.78;99564.51;108407;1254;63824;-85
2023/02/26 00:09:39;;;;;;;35.20;19.90;;;;;;;8.27;95.79;99570.33;109010;1256;760573;-84
2023/02/26 00:12:10;;;;;;;35.90;20.00;;;;;;;8.28;95.80;99572.70;107843;1255;60068;-85
2023/02/26 00:14:39;;;;;;;37.40;22.20;;;;;;;8.26;95.68;99567.61;107157;1251;60024;-84
2023/02/26 00:17:35;;;;;;;33.50;20.30;;;;;;;8.23;95.66;99554.58;107227;1256;73118;-84
2023/02/26 00:20:10;;;;;;;32.90;20.10;;;;;;;8.18;95.47;99551.07;107154;1251;64963;-86
2023/02/26 00:22:39;;;;;;;36.10;21.60;;;;;;;8.14;95.61;99554.87;106921;1257;72686;-85
2023/02/26 00:25:08;;;;;;;38.40;19.40;;;;;;;8.08;95.83;99551.40;107178;1251;61991;-87
2023/02/26 00:27:37;;;;;;;28.00;18.40;;;;;;;8.03;95.87;99562.54;107188;1252;60253;-85
2023/02/26 00:30:07;;;;;;;33.30;19.60;;;;;;;7.98;96.15;99569.98;107557;1251;74005;-82
2023/02/26 00:32:38;;;;;;;35.60;17.60;;;;;;;7.95;96.29;99573.31;107235;1252;64780;-85
2023/02/26 00:35:09;;;;;;;33.70;19.90;;;;;;;7.92;96.37;99571.96;107309;1256;72612;-86
2023/02/26 00:38:03;;;;;;;38.00;20.50;;;;;;;7.88;96.50;99567.66;108812;1251;60085;-82
2023/02/26 00:40:40;;;;;;;38.60;20.80;;;;;;;7.85;96.56;99573.63;107431;1251;60313;-85
2023/02/26 00:46:06;;;;;;;33.80;19.80;;;;;;;7.80;96.41;99577.60;104228;1285;616130;-85
2023/02/26 00:48:58;;;;;;;31.80;18.60;;;;;;;7.74;96.66;99570.91;106480;1266;63194;-84
2023/02/26 00:51:36;;;;;;;33.60;20.20;;;;;;;7.70;96.67;99564.86;106437;1260;61147;-85
2023/02/26 00:54:19;;;;;;;30.30;18.90;;;;;;;7.68;96.82;99565.32;106419;1263;72085;-85
2023/02/26 00:56:48;;;;;;;26.30;19.20;;;;;;;7.70;96.99;99563.48;106583;1265;63875;-86
2023/02/26 00:59:16;;;;;;;37.50;20.70;;;;;;;7.72;96.90;99561.11;106009;1262;825777;-85
2023/02/26 01:01:43;;;;;;;40.10;20.40;;;;;;;7.73;96.88;99564.18;106703;1260;60187;-87
2023/02/26 01:04:14;;;;;;;35.70;21.70;;;;;;;7.72;96.88;99575.70;106694;1257;61181;-85
2023/02/26 01:06:45;;;;;;;35.90;20.60;;;;;;;7.72;96.51;99574.16;106639;1262;72838;-86
2023/02/26 01:09:33;;;;;;;30.40;18.70;;;;;;;7.70;96.42;99565.90;106719;1258;63826;-85
2023/02/26 01:12:11;;;;;;;34.30;20.80;;;;;;;7.64;96.42;99564.36;106920;1259;73421;-85
2023/02/26 01:14:39;;;;;;;30.20;18.30;;;;;;;7.57;96.34;99571.13;106916;1258;62010;-84
2023/02/26 01:17:24;;;;;;;31.50;18.30;;;;;;;7.52;96.47;99585.48;106403;1257;59790;-86
2023/02/26 01:19:57;;;;;;;28.40;17.10;;;;;;;7.48;96.62;99592.54;106037;1259;74138;-86
2023/02/26 01:22:47;;;;;;;34.60;18.50;;;;;;;7.45;96.55;99603.66;106413;1259;64579;-87
2023/02/26 01:25:41;;;;;;;33.80;19.10;;;;;;;7.45;96.67;99604.05;106232;1260;73041;-86
2023/02/26 01:28:09;;;;;;;30.80;19.50;;;;;;;7.43;96.36;99611.27;106404;1257;60241;-85
2023/02/26 01:30:37;;;;;;;33.00;19.20;;;;;;;7.39;96.40;99612.42;106251;1260;61106;-86
2023/02/26 01:33:14;;;;;;;30.80;20.20;;;;;;;7.35;96.21;99613.16;106256;1258;74462;-85
2023/02/26 01:35:44;;;;;;;33.40;20.80;;;;;;;7.32;96.51;99615.79;106690;1259;64532;-86
2023/02/26 01:38:41;;;;;;;38.70;20.30;;;;;;;7.30;96.69;99620.66;106885;1254;72725;-86
2023/02/26 01:42:07;;;;;;;32.30;18.90;;;;;;;7.31;96.90;99615.52;106619;1257;61742;-85
2023/02/26 01:44:35;;;;;;;34.80;19.50;;;;;;;7.37;96.91;99622.64;106320;1263;61310;-85
2023/02/26 01:47:26;;;;;;;38.90;19.80;;;;;;;7.41;97.01;99634.34;105476;1261;74227;-85
2023/02/26 01:49:57;;;;;;;34.40;20.00;;;;;;;7.47;96.94;99642.02;105914;1260;64750;-84
2023/02/26 01:52:48;;;;;;;34.90;19.60;;;;;;;7.52;96.53;99640.98;105853;1267;72648;-83
2023/02/26 01:55:20;;;;;;;38.20;19.60;;;;;;;7.49;96.15;99647.10;105878;1259;61494;-84
2023/02/26 01:57:48;;;;;;;38.80;21.10;;;;;;;7.49;96.32;99651.77;106057;1259;61185;-85
2023/02/26 02:00:15;;;;;;;37.60;22.70;;;;;;;7.52;95.97;99648.85;106296;1259;71651;-81
2023/02/26 02:02:44;;;;;;;38.90;19.40;;;;;;;7.54;95.93;99644.54;107693;1265;63817;-85
2023/02/26 02:05:34;;;;;;;30.10;19.50;;;;;;;7.55;95.79;99642.89;105985;1263;73135;-85
2023/02/26 02:08:03;;;;;;;30.80;17.20;;;;;;;7.59;95.99;99652.20;105650;1260;60955;-85
2023/02/26 02:10:29;;;;;;;33.20;18.60;;;;;;;7.62;95.45;99647.79;105481;1261;60376;-84
2023/02/26 02:13:23;;;;;;;29.30;19.80;;;;;;;7.63;95.52;99644.99;105548;1262;74474;-87
2023/02/26 02:16:02;;;;;;;31.20;20.70;;;;;;;7.68;95.50;99636.81;105997;1256;64792;-86
2023/02/26 02:19:08;;;;;;;32.80;18.70;;;;;;;7.74;95.26;99638.52;105978;1256;72504;-87
2023/02/26 02:21:41;;;;;;;34.70;20.40;;;;;;;7.77;94.68;99643.20;106119;1255;62885;-84
2023/02/26 02:24:13;;;;;;;42.00;19.80;;;;;;;7.72;94.43;99652.73;106224;1250;61145;-89
2023/02/26 02:26:43;;;;;;;37.10;18.90;;;;;;;7.66;94.22;99663.73;106620;1250;74299;-87
2023/02/26 02:29:36;;;;;;;24.80;17.10;;;;;;;7.60;94.37;99670.08;106880;1256;64608;-86
2023/02/26 02:32:13;;;;;;;36.90;18.90;;;;;;;7.52;94.61;99675.42;106854;1255;72289;-85
2023/02/26 02:34:48;;;;;;;32.90;18.50;;;;;;;7.46;94.84;99678.06;106811;1254;62859;-86
2023/02/26 02:37:37;;;;;;;31.80;18.30;;;;;;;7.41;94.88;99686.39;106350;1251;59707;-85
2023/02/26 02:40:17;;;;;;;37.00;21.30;;;;;;;7.35;95.04;99693.86;106206;1255;74247;-85
2023/02/26 02:43:14;;;;;;;32.90;19.80;;;;;;;7.31;95.12;99699.54;106128;1256;64223;-87
2023/02/26 02:45:55;;;;;;;37.10;19.90;;;;;;;7.26;95.21;99713.19;106133;1256;73768;-83
2023/02/26 02:48:30;;;;;;;38.40;20.00;;;;;;;7.24;95.11;99726.52;106768;1251;62699;-86
2023/02/26 02:51:23;;;;;;;36.60;21.20;;;;;;;7.22;95.19;99737.75;107012;1256;60820;-85
2023/02/26 02:53:53;;;;;;;32.50;19.10;;;;;;;7.20;95.22;99754.77;106376;1259;74680;-86
2023/02/26 02:56:27;;;;;;;34.50;21.80;;;;;;;7.19;95.47;99762.84;106912;1251;64910;-84
2023/02/26 02:59:18;;;;;;;41.50;24.80;;;;;;;7.20;95.52;99761.34;107011;1256;72614;-85
2023/02/26 03:01:47;;;;;;;31.20;19.00;;;;;;;7.24;95.52;99757.46;107778;1250;62952;-84
2023/02/26 03:04:15;;;;;;;34.50;19.00;;;;;;;7.27;95.44;99751.38;108145;1250;61161;-84
2023/02/26 03:06:44;;;;;;;31.10;18.90;;;;;;;7.29;95.38;99746.55;109067;1251;74343;-82
2023/02/26 03:09:14;;;;;;;32.50;20.10;;;;;;;7.32;95.51;99751.95;107430;1250;66200;-85
2023/02/26 03:11:43;;;;;;;32.80;20.10;;;;;;;7.34;95.32;99754.27;108229;1251;72654;-84
2023/02/26 03:14:10;;;;;;;36.00;20.60;;;;;;;7.35;94.94;99758.40;109644;1251;61861;-86
2023/02/26 03:17:06;;;;;;;37.60;18.60;;;;;;;7.36;94.77;99760.55;109026;1251;60345;-85
2023/02/26 03:19:52;;;;;;;31.90;17.70;;;;;;;7.36;94.57;99764.71;108577;1250;73848;-86
2023/02/26 03:22:59;;;;;;;34.60;19.70;;;;;;;7.37;94.63;99774.05;107829;1254;63522;-85
2023/02/26 03:25:31;;;;;;;32.40;18.70;;;;;;;7.41;94.63;99784.96;108225;1251;72659;-82
2023/02/26 03:28:15;;;;;;;29.10;19.50;;;;;;;7.46;94.67;99782.72;107598;1255;62030;-84
2023/02/26 03:30:51;;;;;;;30.10;20.00;;;;;;;7.55;94.65;99781.84;106465;1251;60750;-85
2023/02/26 03:33:31;;;;;;;35.80;21.60;;;;;;;7.64;94.34;99780.45;106182;1259;73225;-85
2023/02/26 03:36:21;;;;;;;37.20;21.70;;;;;;;7.69;93.99;99779.41;106113;1254;64052;-88
2023/02/26 03:39:14;;;;;;;39.20;22.80;;;;;;;7.70;93.23;99781.46;105505;1261;73939;-87
2023/02/26 03:41:48;;;;;;;40.80;22.90;;;;;;;7.69;92.80;99785.70;105577;1262;63048;-85
2023/02/26 03:44:24;;;;;;;33.60;21.50;;;;;;;7.66;92.74;99786.05;105545;1258;60647;-84
2023/02/26 03:46:54;;;;;;;36.50;20.00;;;;;;;7.65;92.64;99793.43;105481;1262;73989;-85
2023/02/26 03:49:32;;;;;;;30.70;19.80;;;;;;;7.67;92.85;99795.23;105534;1263;65000;-85
2023/02/26 03:51:59;;;;;;;41.10;22.30;;;;;;;7.70;92.92;99799.39;105498;1262;73720;-85
2023/02/26 03:55:17;;;;;;;34.30;22.30;;;;;;;7.71;92.62;99811.30;105460;1263;61468;-85
2023/02/26 03:58:19;;;;;;;39.20;22.60;;;;;;;7.71;92.35;99817.92;105362;1258;61877;-85
2023/02/26 04:01:08;;;;;;;40.60;23.30;;;;;;;7.70;92.26;99821.45;105465;1258;74273;-85
2023/02/26 04:03:43;;;;;;;40.70;24.40;;;;;;;7.71;91.94;99836.73;105432;1261;64592;-86
2023/02/26 04:06:10;;;;;;;39.30;23.50;;;;;;;7.69;91.87;99847.29;105445;1260;72568;-85
2023/02/26 04:08:37;;;;;;;41.40;24.30;;;;;;;7.65;91.85;99858.33;105529;1262;62936;-86
2023/02/26 04:11:16;;;;;;;42.00;25.40;;;;;;;7.60;91.97;99865.92;105400;1262;61107;-86
2023/02/26 04:13:43;;;;;;;40.80;24.10;;;;;;;7.58;92.17;99875.60;105563;1257;73800;-85
2023/02/26 04:16:13;;;;;;;40.60;22.90;;;;;;;7.60;92.15;99878.46;105808;1262;64623;-85
2023/02/26 04:18:43;;;;;;;40.20;23.40;;;;;;;7.61;92.04;99889.34;105978;1256;73808;-86
2023/02/26 04:21:13;;;;;;;39.70;21.90;;;;;;;7.62;91.97;99904.40;105871;1257;62859;-88
2023/02/26 04:23:41;;;;;;;43.70;24.20;;;;;;;7.63;92.13;99917.02;106053;1257;60120;-87
2023/02/26 04:26:08;;;;;;;34.50;22.50;;;;;;;7.64;92.20;99922.70;106069;1251;73893;-87
2023/02/26 04:28:38;;;;;;;42.60;25.10;;;;;;;7.64;91.97;99910.73;106225;1254;64686;-87
2023/02/26 04:31:05;;;;;;;38.60;24.40;;;;;;;7.61;91.74;99911.23;106024;1254;72437;-85
2023/02/26 04:33:33;;;;;;;38.80;23.10;;;;;;;7.57;91.50;99915.33;106209;1254;62918;-87
2023/02/26 04:36:00;;;;;;;37.40;22.30;;;;;;;7.43;91.44;99895.41;105993;1256;61308;-87
2023/02/26 04:38:27;;;;;;;43.10;26.00;;;;;;;7.28;91.87;99899.61;106281;1250;73647;-88
2023/02/26 04:40:54;;;;;;;33.90;22.00;;;;;;;7.14;92.47;99905.10;106100;1256;64972;-87
2023/02/26 04:43:23;;;;;;;38.40;23.90;;;;;;;7.03;92.95;99912.82;106131;1254;73831;-87
2023/02/26 04:45:59;;;;;;;33.10;23.90;;;;;;;6.96;93.70;99917.78;106233;1251;60168;-88
2023/02/26 04:48:26;;;;;;;42.20;26.30;;;;;;;6.94;94.22;99936.84;106162;1257;60134;-87
2023/02/26 04:50:54;;;;;;;35.70;24.30;;;;;;;6.98;94.75;99949.27;107561;1251;73981;-83
2023/02/26 04:53:21;;;;;;;40.30;25.50;;;;;;;7.04;94.80;99953.45;108353;1251;63669;-86
2023/02/26 04:55:48;;;;;;;43.30;24.80;;;;;;;7.11;94.77;99955.52;106412;1251;72630;-86
2023/02/26 04:58:21;;;;;;;39.70;23.80;;;;;;;7.16;95.10;99969.14;106110;1254;63024;-89
2023/02/26 05:00:49;;;;;;;36.40;23.50;;;;;;;7.21;95.06;99973.54;106231;1254;60179;-89
2023/02/26 05:03:16;;;;;;;43.30;25.80;;;;;;;7.28;95.11;99976.30;106209;1254;73269;-86
2023/02/26 05:05:43;;;;;;;47.20;28.60;;;;;;;7.34;95.16;99981.17;106098;1254;63605;-88
2023/02/26 05:08:15;;;;;;;47.90;30.20;;;;;;;7.40;94.92;99985.51;106183;1256;73531;-87
2023/02/26 05:10:43;;;;;;;46.70;30.10;;;;;;;7.44;94.80;99986.34;106135;1256;61253;-86
2023/02/26 05:13:09;;;;;;;40.10;26.50;;;;;;;7.46;94.40;99988.61;105970;1258;60345;-88
2023/02/26 05:15:37;;;;;;;46.10;26.70;;;;;;;7.50;94.23;99990.36;106160;1254;74798;-87
2023/02/26 05:18:04;;;;;;;42.20;28.10;;;;;;;7.52;94.07;99990.08;105946;1257;65395;-88
2023/02/26 05:20:33;;;;;;;48.10;29.00;;;;;;;7.54;93.81;99987.84;106126;1251;73730;-86
2023/02/26 05:23:03;;;;;;;43.10;27.30;;;;;;;7.57;93.66;99983.87;106185;1256;60403;-86
2023/02/26 05:25:31;;;;;;;42.00;27.70;;;;;;;7.55;93.15;99986.91;106128;1250;61333;-89
2023/02/26 05:28:00;;;;;;;45.40;29.10;;;;;;;7.50;93.03;99987.60;106256;1252;74941;-88
2023/02/26 05:30:28;;;;;;;42.30;26.80;;;;;;;7.44;93.10;99994.66;106250;1254;64701;-89
2023/02/26 05:32:56;;;;;;;39.20;27.10;;;;;;;7.43;93.30;99996.79;106242;1251;73171;-88
2023/02/26 05:35:22;;;;;;;44.60;28.20;;;;;;;7.43;93.08;100007.39;106268;1251;62849;-87
2023/02/26 05:37:50;;;;;;;40.20;25.40;;;;;;;7.41;93.14;100018.88;106124;1258;61040;-88
2023/02/26 05:40:20;;;;;;;36.80;24.80;;;;;;;7.41;93.45;100027.73;106617;1254;74801;-87
2023/02/26 05:42:47;;;;;;;42.10;25.90;;;;;;;7.44;93.63;100034.67;106514;1254;64713;-89
2023/02/26 05:45:15;;;;;;;43.90;27.20;;;;;;;7.47;93.66;100043.57;106368;1251;73711;-88
2023/02/26 05:47:47;;;;;;;41.50;26.70;;;;;;;7.47;93.43;100047.55;106445;1255;61457;-86
2023/02/26 05:50:14;;;;;;;38.10;26.80;;;;;;;7.47;93.56;100047.19;106687;1250;61424;-88
2023/02/26 05:52:42;;;;;;;38.00;26.70;;;;;;;7.45;93.03;100046.95;106672;1251;72487;-87
2023/02/26 05:55:12;;;;;;;41.90;28.30;;;;;;;7.40;93.19;100057.70;106628;1251;64808;-86
2023/02/26 05:57:39;;;;;;;39.30;24.40;;;;;;;7.37;93.42;100066.52;109135;1251;72897;-87
2023/02/26 06:00:07;;;;;;;38.60;24.90;;;;;;;7.38;93.22;100070.85;109654;1253;61983;-87
2023/02/26 06:02:40;;;;;;;33.20;23.40;;;;;;;7.35;93.20;100076.38;109667;1252;60021;-88
2023/02/26 06:05:08;;;;;;;34.40;21.80;;;;;;;7.36;93.70;100077.92;109762;1252;73695;-87
2023/02/26 06:07:35;;;;;;;35.20;24.50;;;;;;;7.40;93.93;100083.25;109775;1251;63986;-87
2023/02/26 06:10:02;;;;;;;51.50;28.10;;;;;;;7.44;94.10;100082.31;109729;1254;72738;-87
2023/02/26 06:12:34;;;;;;;51.20;32.20;;;;;;;7.50;94.29;100083.36;109266;1252;61337;-88
2023/02/26 06:15:35;;;;;;;58.10;34.80;;;;;;;7.56;93.93;100089.48;109717;1252;60834;-89
2023/02/26 06:18:04;;;;;;;62.80;35.20;;;;;;;7.61;93.62;100084.52;109146;1257;73772;-89
2023/02/26 06:20:33;;;;;;;46.40;31.50;;;;;;;7.62;93.38;100079.58;109301;1257;65358;-88
2023/02/26 06:23:02;;;;;;;55.50;30.80;;;;;;;7.65;93.05;100075.95;109325;1257;72758;-89
2023/02/26 06:25:34;;;;;;;52.30;30.70;;;;;;;7.65;92.91;100075.94;109271;1257;61755;-88
2023/02/26 06:28:02;;;;;;;60.50;31.70;;;;;;;7.65;93.04;100076.06;109207;1257;60122;-90
2023/02/26 06:30:29;;;;;;;57.80;33.00;;;;;;;7.66;92.93;100072.02;109406;1257;73659;-88
2023/02/26 06:32:57;;;;;;;54.60;30.60;;;;;;;7.68;93.04;100067.73;109391;1257;63504;-91
2023/02/26 06:35:24;;;;;;;50.50;27.70;;;;;;;7.70;92.79;100070.63;109278;1261;72673;-89
2023/02/26 06:37:51;;;;;;;51.70;29.90;;;;;;;7.73;92.86;100077.03;108707;1257;61542;-88
2023/02/26 06:40:19;;;;;;;47.50;29.20;;;;;;;7.78;92.83;100079.92;107515;1257;59925;-88
2023/02/26 06:42:46;;;;;;;50.80;29.00;;;;;;;7.78;92.48;100084.96;107059;1262;75034;-90
2023/02/26 06:45:13;;;;;;;40.40;24.60;;;;;;;7.75;92.47;100091.52;106350;1260;64822;-88
2023/02/26 06:47:40;;;;;;;36.80;23.80;;;;;;;7.74;92.25;100093.70;106121;1266;72830;-89
2023/02/26 06:50:09;;;;;;;39.30;23.10;;;;;;;7.69;92.28;100097.80;105849;1257;63153;-90
2023/02/26 06:52:36;;;;;;;39.50;24.10;;;;;;;7.65;92.37;100102.55;105748;1257;61147;-89
2023/02/26 06:55:06;;;;;;;35.90;21.90;;;;;;;7.65;92.88;100111.25;105966;1260;74660;-90
2023/02/26 06:57:34;;;;;;;33.80;22.00;;;;;;;7.66;92.98;100117.83;106290;1252;62973;-90
2023/02/26 07:00:09;;;;;;;;;;;;;;;7.67;93.14;100120.89;106336;1256;72226;-89
2023/02/26 07:02:36;;;;;;;31.50;20.60;;;;;;;7.72;93.26;100134.89;106449;1254;61901;-89
2023/02/26 07:05:04;;;;;;;33.30;22.60;;;;;;;7.76;92.89;100139.31;106053;1254;61767;-89
2023/02/26 07:07:32;;;;;;;34.70;21.80;;;;;;;7.77;92.52;100138.42;106159;1254;74778;-88
2023/02/26 07:09:59;;;;;;;36.10;20.90;;;;;;;7.74;92.24;100133.56;106084;1254;65623;-89
2023/02/26 07:12:25;;;;;;;29.90;20.50;;;;;;;7.69;92.10;100131.35;105982;1255;73748;-89
2023/02/26 07:14:52;;;;;;;28.30;18.30;;;;;;;7.66;92.10;100135.88;106314;1257;61666;-88
2023/02/26 07:17:24;;;;;;;31.30;19.00;;;;;;;7.62;91.93;100127.93;106225;1254;60902;-88
2023/02/26 07:19:52;;;;;;;30.60;17.40;;;;;;;7.57;92.01;100115.86;106321;1256;74944;-88
2023/02/26 07:22:20;;;;;;;30.60;19.00;;;;;;;7.53;92.02;100122.05;106285;1252;64741;-88
2023/02/26 07:24:49;;;;;;;29.80;18.20;;;;;;;7.49;92.41;100121.37;106572;1256;73572;-89
2023/02/26 07:27:16;;;;;;;27.30;17.90;;;;;;;7.49;92.24;100124.65;105994;1254;62523;-89
2023/02/26 07:29:46;;;;;;;25.40;15.60;;;;;;;7.48;92.02;100124.73;106002;1254;62069;-86
2023/02/26 07:32:14;;;;;;;24.70;17.30;;;;;;;7.51;92.27;100128.42;106078;1255;74511;-90
2023/02/26 07:34:41;;;;;;;26.20;17.10;;;;;;;7.51;92.17;100127.69;105980;1254;64659;-89
2023/02/26 07:37:08;;;;;;;29.40;18.30;;;;;;;7.54;91.85;100136.02;106144;1252;73344;-89
2023/02/26 07:39:35;;;;;;;21.90;15.50;;;;;;;7.57;91.34;100133.45;106736;1254;60499;-89
2023/02/26 07:42:03;;;;;;;22.70;15.20;;;;;;;7.60;91.08;100140.60;108934;1253;61297;-87
2023/02/26 07:44:30;;;;;;;24.50;15.30;;;;;;;7.63;90.52;100140.05;106742;1256;74744;-89
2023/02/26 07:46:57;;;;;;;22.50;15.40;;;;;;;7.65;90.06;100137.71;106569;1253;64304;-90
2023/02/26 07:49:24;;;;;;;18.00;14.40;;;;;;;7.66;89.84;100136.05;106208;1257;73679;-90
2023/02/26 07:51:51;;;;;;;28.40;17.10;;;;;;;7.68;89.63;100137.17;106856;1254;61980;-89
2023/02/26 07:54:18;;;;;;;31.40;17.10;;;;;;;7.70;89.46;100140.20;108843;1253;60412;-89
2023/02/26 07:56:52;;;;;;;33.40;17.20;;;;;;;7.72;88.94;100139.09;109484;1251;73305;-88
2023/02/26 07:59:19;;;;;;;27.00;17.20;;;;;;;7.72;88.73;100138.16;109681;1251;63811;-90
2023/02/26 08:01:53;;;;;;;29.10;18.50;;;;;;;7.77;88.60;100134.44;109681;1252;72632;-88
2023/02/26 08:04:20;;;;;;;23.00;17.10;;;;;;;7.78;88.14;100135.58;109515;1254;61416;-88
2023/02/26 08:06:48;;;;;;;23.20;16.80;;;;;;;7.81;87.67;100139.41;109501;1254;60492;-88
2023/02/26 08:09:15;;;;;;;29.00;17.90;;;;;;;7.85;87.20;100140.61;109508;1253;74209;-88
2023/02/26 08:11:42;;;;;;;28.00;18.60;;;;;;;7.87;86.56;100149.35;109540;1254;63599;-89
2023/02/26 08:14:10;;;;;;;39.90;22.10;;;;;;;7.86;85.90;100159.15;109574;1254;72703;-90
2023/02/26 08:16:38;;;;;;;26.30;18.20;;;;;;;7.83;85.54;100159.50;109552;1254;61976;-88
2023/02/26 08:19:06;;;;;;;26.40;20.00;;;;;;;7.80;85.58;100157.05;109142;1254;60119;-89
2023/02/26 08:21:33;;;;;;;34.10;20.60;;;;;;;7.77;85.59;100161.04;109536;1254;73800;-89
2023/02/26 08:24:00;;;;;;;27.60;15.40;;;;;;;7.76;85.59;100164.76;109293;1254;63885;-88
2023/02/26 08:26:27;;;;;;;23.30;15.60;;;;;;;7.77;85.59;100160.52;108737;1254;72534;-88
2023/02/26 08:28:55;;;;;;;27.30;14.80;;;;;;;7.81;85.40;100158.54;108593;1254;61047;-90
2023/02/26 08:31:24;;;;;;;23.10;15.40;;;;;;;7.84;85.28;100165.35;106926;1254;60660;-88
2023/02/26 08:37:58;;;;;;;30.70;18.00;;;;;;;7.97;84.66;100169.71;106614;1256;66757;-90
2023/02/26 08:40:26;;;;;;;29.80;19.20;;;;;;;7.98;84.25;100175.89;106148;1254;70739;-90
2023/02/26 08:43:04;;;;;;;29.00;20.90;;;;;;;7.96;83.78;100182.42;106090;1253;62478;-90
2023/02/26 08:45:32;;;;;;;19.50;13.20;;;;;;;7.94;84.03;100193.34;106074;1258;60632;-91
2023/02/26 08:47:59;;;;;;;19.30;13.00;;;;;;;7.90;83.84;100205.56;105881;1257;73917;-90
2023/02/26 08:50:26;;;;;;;18.40;11.20;;;;;;;7.86;83.92;100205.98;105940;1254;62746;-90
2023/02/26 08:52:53;;;;;;;18.50;9.70;;;;;;;7.84;83.83;100214.80;105759;1254;73001;-89
2023/02/26 08:55:22;;;;;;;12.80;8.40;;;;;;;7.80;83.84;100221.95;105999;1255;62024;-89
2023/02/26 08:57:49;;;;;;;14.60;9.50;;;;;;;7.78;84.14;100230.25;106155;1253;60435;-89
2023/02/26 09:00:20;;;;;;;11.30;7.10;;;;;;;7.79;84.63;100240.66;106537;1253;73925;-85
2023/02/26 09:02:48;;;;;;;8.70;6.60;;;;;;;7.82;84.79;100249.69;108139;1251;62636;-88
2023/02/26 09:05:16;;;;;;;12.10;6.40;;;;;;;7.84;84.49;100259.67;109461;1252;72578;-88
2023/02/26 09:07:44;;;;;;;8.60;6.60;;;;;;;7.82;84.01;100258.23;108420;1256;60211;-88
2023/02/26 09:10:13;;;;;;;17.30;9.10;;;;;;;7.80;84.10;100265.30;106422;1256;61259;-88
2023/02/26 09:12:42;;;;;;;17.50;11.00;;;;;;;7.80;84.31;100271.54;106692;1255;73669;-89
2023/02/26 09:15:09;;;;;;;17.00;10.20;;;;;;;7.82;84.67;100275.48;106230;1256;63988;-88
2023/02/26 09:17:37;;;;;;;11.70;8.50;;;;;;;7.84;84.47;100275.86;105931;1254;71392;-89
2023/02/26 09:20:07;;;;;;;14.30;8.40;;;;;;;7.86;84.39;100272.27;105970;1254;61963;-88
2023/02/26 09:22:35;;;;;;;10.70;7.60;;;;;;;7.89;84.40;100271.93;106108;1256;60287;-89
2023/02/26 09:25:03;;;;;;;8.50;6.10;;;;;;;7.97;84.53;100271.48;106049;1254;74619;-89
2023/02/26 09:27:31;;;;;;;7.60;5.70;;;;;;;8.04;83.99;100273.16;106109;1253;64877;-89
2023/02/26 09:29:59;;;;;;;9.20;6.00;;;;;;;8.10;83.56;100270.98;106014;1253;74004;-90
2023/02/26 09:32:26;;;;;;;11.90;6.90;;;;;;;8.14;83.33;100272.52;106129;1253;61346;-89
2023/02/26 09:34:53;;;;;;;7.10;5.60;;;;;;;8.17;82.99;100278.92;105936;1254;61373;-89
2023/02/26 09:37:20;;;;;;;13.40;7.00;;;;;;;8.18;82.71;100280.96;106143;1256;74696;-89
2023/02/26 09:39:51;;;;;;;11.30;7.10;;;;;;;8.21;82.65;100282.02;106194;1253;64592;-90
2023/02/26 09:42:43;;;;;;;12.70;7.00;;;;;;;8.22;82.45;100289.26;106330;1253;73079;-87
2023/02/26 09:45:16;;;;;;;8.30;5.90;;;;;;;8.22;82.35;100286.14;108575;1251;61996;-89
2023/02/26 09:47:49;;;;;;;9.00;6.30;;;;;;;8.22;82.31;100276.40;109478;1253;60153;-89
2023/02/26 09:50:23;;;;;;;8.10;6.30;;;;;;;8.22;82.04;100284.77;108276;1252;73790;-88
2023/02/26 09:53:13;;;;;;;8.10;5.70;;;;;;;8.20;82.02;100289.21;107865;1254;63809;-89
2023/02/26 09:55:43;;;;;;;8.00;5.60;;;;;;;8.21;81.84;100296.34;107464;1252;72561;-88
2023/02/26 09:58:25;;;;;;;8.50;6.20;;;;;;;8.19;81.95;100289.59;107226;1253;61104;-88
2023/02/26 10:01:05;;;;;;;12.20;8.40;;;;;;;8.18;81.89;100296.30;107376;1254;60385;-90
2023/02/26 10:03:57;;;;;;;12.20;7.10;;;;;;;8.13;81.66;100291.70;107088;1253;73789;-88
2023/02/26 10:06:31;;;;;;;12.00;9.20;;;;;;;8.09;81.72;100289.98;107476;1253;65000;-90
2023/02/26 10:09:16;;;;;;;8.70;7.60;;;;;;;8.07;81.82;100291.85;107167;1255;73319;-89
2023/02/26 10:11:59;;;;;;;9.60;6.60;;;;;;;8.04;81.66;100300.20;107082;1252;61846;-88
2023/02/26 10:14:41;;;;;;;10.30;6.40;;;;;;;8.00;81.68;100299.90;107482;1251;60645;-88
2023/02/26 10:17:22;;;;;;;8.70;6.20;;;;;;;7.99;81.78;100301.02;107833;1253;74814;-89
2023/02/26 10:19:54;;;;;;;10.00;6.10;;;;;;;8.02;82.10;100296.29;107574;1253;64155;-88
2023/02/26 10:22:54;;;;;;;6.30;4.40;;;;;;;8.05;81.84;100298.37;107494;1253;74310;-88
2023/02/26 10:25:29;;;;;;;8.30;5.90;;;;;;;8.03;81.66;100300.08;107279;1252;60646;-88
2023/02/26 10:28:15;;;;;;;10.50;6.80;;;;;;;7.98;81.37;100302.58;107346;1253;61073;-90
2023/02/26 10:31:14;;;;;;;8.40;5.50;;;;;;;7.93;81.50;100308.27;108239;1253;73797;-89
2023/02/26 10:33:49;;;;;;;6.10;4.80;;;;;;;7.87;81.72;100317.98;108361;1252;63811;-89
2023/02/26 10:36:27;;;;;;;5.00;3.90;;;;;;;7.84;81.91;100314.68;107952;1251;73875;-90
2023/02/26 10:39:36;;;;;;;5.70;4.30;;;;;;;7.83;82.19;100311.92;107263;1256;63091;-90
2023/02/26 10:42:13;;;;;;;8.40;4.90;;;;;;;7.83;82.44;100309.14;107197;1256;60303;-88
2023/02/26 10:45:49;;;;;;;9.20;5.70;;;;;;;7.80;82.61;100309.64;107169;1256;73803;-89
2023/02/26 10:48:46;;;;;;;8.20;6.00;;;;;;;7.78;82.76;100318.31;107308;1260;65121;-88
2023/02/26 10:51:19;;;;;;;8.70;6.30;;;;;;;7.76;83.04;100319.45;107085;1260;72640;-89
2023/02/26 10:53:51;;;;;;;11.50;7.20;;;;;;;7.77;83.04;100317.98;106920;1267;62744;-89
2023/02/26 10:56:31;;;;;;;11.60;7.60;;;;;;;7.80;83.43;100321.13;106970;1260;60358;-89
2023/02/26 10:59:07;;;;;;;8.20;6.10;;;;;;;7.86;83.54;100340.48;107060;1260;73868;-89
2023/02/26 11:01:35;;;;;;;8.60;5.80;;;;;;;7.89;83.30;100343.30;107366;1261;64045;-88
2023/02/26 11:04:07;;;;;;;13.00;6.90;;;;;;;7.89;82.87;100343.83;107326;1261;72519;-89
2023/02/26 11:07:01;;;;;;;13.70;9.10;;;;;;;7.84;82.52;100339.52;107257;1260;61243;-88
2023/02/26 11:09:37;;;;;;;15.80;10.60;;;;;;;7.76;82.71;100331.27;107139;1262;61348;-87
2023/02/26 11:12:12;;;;;;;14.20;8.80;;;;;;;7.73;82.91;100335.43;107056;1262;73828;-88
2023/02/26 11:14:44;;;;;;;14.80;9.80;;;;;;;7.71;83.33;100336.98;107012;1268;63691;-89
2023/02/26 11:17:22;;;;;;;13.80;9.40;;;;;;;7.66;83.71;100341.02;107167;1259;73628;-87
2023/02/26 11:19:56;;;;;;;13.40;10.50;;;;;;;7.66;84.19;100342.77;106588;1266;61815;-88
2023/02/26 11:22:26;;;;;;;13.70;9.90;;;;;;;7.67;84.39;100344.61;107094;1259;60201;-88
2023/02/26 11:24:53;;;;;;;15.60;11.30;;;;;;;7.69;84.47;100340.86;107354;1253;74813;-86
2023/02/26 11:27:30;;;;;;;15.00;10.60;;;;;;;7.68;84.30;100344.56;107208;1253;64783;-87
2023/02/26 11:30:04;;;;;;;25.60;13.30;;;;;;;7.71;84.60;100350.36;107384;1260;72631;-88
2023/02/26 11:32:35;;;;;;;19.40;11.60;;;;;;;7.72;84.56;100352.58;107400;1253;61789;-88
2023/02/26 11:35:07;;;;;;;21.10;10.50;;;;;;;7.71;84.41;100356.08;107298;1253;60672;-88
2023/02/26 11:37:37;;;;;;;19.40;11.60;;;;;;;7.71;84.55;100365.66;107621;1253;73729;-85
2023/02/26 11:40:12;;;;;;;21.00;11.80;;;;;;;7.73;84.49;100370.10;107506;1253;64555;-88
2023/02/26 11:42:57;;;;;;;21.80;13.00;;;;;;;7.74;84.40;100369.50;107342;1253;72542;-87
2023/02/26 11:45:24;;;;;;;27.50;12.40;;;;;;;7.75;84.29;100366.33;107305;1253;61978;-89
2023/02/26 11:48:04;;;;;;;21.90;10.30;;;;;;;7.75;84.18;100363.71;107290;1253;61149;-89
2023/02/26 11:50:41;;;;;;;15.30;10.00;;;;;;;7.75;84.40;100371.34;107105;1253;74839;-88
2023/02/26 11:53:22;;;;;;;15.30;9.90;;;;;;;7.78;84.51;100369.98;107460;1253;63804;-90